sensor_id;sensor_type;location;lat;lon;timestamp;P1;durP1;ratioP1;P2;durP2;ratioP2
21315;SDS011;10817;55.820;13.030;2023-02-28T00:01:18;11.88;;;5.90;;
21315;SDS011;10817;55.820;13.030;2023-02-28T00:03:46;8.77;;;5.88;;
21315;SDS011;10817;55.820;13.030;2023-02-28T00:06:13;9.15;;;6.00;;
21315;SDS011;10817;55.820;13.030;2023-02-28T00:08:40;10.48;;;6.15;;
21315;SDS011;10817;55.820;13.030;2023-02-28T00:11:08;7.63;;;5.97;;
21315;SDS011;10817;55.820;13.030;2023-02-28T00:13:36;9.00;;;5.80;;
21315;SDS011;10817;55.820;13.030;2023-02-28T00:16:06;10.85;;;5.40;;
21315;SDS011;10817;55.820;13.030;2023-02-28T00:18:35;8.82;;;5.72;;
21315;SDS011;10817;55.820;13.030;2023-02-28T00:21:02;10.05;;;6.45;;
21315;SDS011;10817;55.820;13.030;2023-02-28T00:23:30;8.60;;;6.40;;
21315;SDS011;10817;55.820;13.030;2023-02-28T00:25:57;13.05;;;6.78;;
21315;SDS011;10817;55.820;13.030;2023-02-28T00:28:24;9.13;;;6.28;;
21315;SDS011;10817;55.820;13.030;2023-02-28T00:30:51;9.35;;;6.03;;
21315;SDS011;10817;55.820;13.030;2023-02-28T00:33:20;8.73;;;6.13;;
21315;SDS011;10817;55.820;13.030;2023-02-28T00:35:49;11.60;;;6.10;;
21315;SDS011;10817;55.820;13.030;2023-02-28T00:38:16;8.90;;;6.05;;
21315;SDS011;10817;55.820;13.030;2023-02-28T00:40:43;9.57;;;6.22;;
21315;SDS011;10817;55.820;13.030;2023-02-28T00:43:10;10.40;;;6.55;;
21315;SDS011;10817;55.820;13.030;2023-02-28T00:45:38;9.35;;;5.93;;
21315;SDS011;10817;55.820;13.030;2023-02-28T00:48:05;9.77;;;6.28;;
21315;SDS011;10817;55.820;13.030;2023-02-28T00:50:33;11.80;;;6.43;;
21315;SDS011;10817;55.820;13.030;2023-02-28T00:53:00;8.63;;;5.85;;
21315;SDS011;10817;55.820;13.030;2023-02-28T00:55:28;9.10;;;6.35;;
21315;SDS011;10817;55.820;13.030;2023-02-28T00:57:55;8.93;;;6.10;;
21315;SDS011;10817;55.820;13.030;2023-02-28T01:00:22;8.45;;;5.93;;
21315;SDS011;10817;55.820;13.030;2023-02-28T01:02:49;12.95;;;6.45;;
21315;SDS011;10817;55.820;13.030;2023-02-28T01:05:16;8.52;;;5.68;;
21315;SDS011;10817;55.820;13.030;2023-02-28T01:07:45;11.32;;;6.63;;
21315;SDS011;10817;55.820;13.030;2023-02-28T01:10:12;8.35;;;6.20;;
21315;SDS011;10817;55.820;13.030;2023-02-28T01:12:39;9.32;;;6.13;;
21315;SDS011;10817;55.820;13.030;2023-02-28T01:15:09;8.57;;;5.97;;
21315;SDS011;10817;55.820;13.030;2023-02-28T01:17:36;12.82;;;6.88;;
21315;SDS011;10817;55.820;13.030;2023-02-28T01:20:04;11.00;;;6.20;;
21315;SDS011;10817;55.820;13.030;2023-02-28T01:22:31;12.13;;;6.25;;
21315;SDS011;10817;55.820;13.030;2023-02-28T01:25:01;12.40;;;5.88;;
21315;SDS011;10817;55.820;13.030;2023-02-28T01:27:30;11.82;;;6.25;;
21315;SDS011;10817;55.820;13.030;2023-02-28T01:29:58;10.30;;;6.15;;
21315;SDS011;10817;55.820;13.030;2023-02-28T01:32:25;11.23;;;5.90;;
21315;SDS011;10817;55.820;13.030;2023-02-28T01:34:52;8.23;;;5.65;;
21315;SDS011;10817;55.820;13.030;2023-02-28T01:37:19;10.52;;;5.65;;
21315;SDS011;10817;55.820;13.030;2023-02-28T01:39:46;10.85;;;6.72;;
21315;SDS011;10817;55.820;13.030;2023-02-28T01:42:15;13.65;;;6.50;;
21315;SDS011;10817;55.820;13.030;2023-02-28T01:44:59;14.35;;;6.38;;
21315;SDS011;10817;55.820;13.030;2023-02-28T01:47:27;14.05;;;6.78;;
21315;SDS011;10817;55.820;13.030;2023-02-28T01:49:56;12.25;;;6.45;;
21315;SDS011;10817;55.820;13.030;2023-02-28T01:52:23;11.93;;;6.90;;
21315;SDS011;10817;55.820;13.030;2023-02-28T01:54:53;10.68;;;6.20;;
21315;SDS011;10817;55.820;13.030;2023-02-28T01:57:23;14.93;;;6.30;;
21315;SDS011;10817;55.820;13.030;2023-02-28T01:59:54;10.45;;;6.10;;
21315;SDS011;10817;55.820;13.030;2023-02-28T02:02:23;10.32;;;5.90;;
21315;SDS011;10817;55.820;13.030;2023-02-28T02:04:51;12.60;;;7.00;;
21315;SDS011;10817;55.820;13.030;2023-02-28T02:07:20;9.23;;;5.85;;
21315;SDS011;10817;55.820;13.030;2023-02-28T02:09:48;9.25;;;5.72;;
21315;SDS011;10817;55.820;13.030;2023-02-28T02:12:18;10.18;;;5.30;;
21315;SDS011;10817;55.820;13.030;2023-02-28T02:14:53;7.70;;;5.30;;
21315;SDS011;10817;55.820;13.030;2023-02-28T02:17:25;9.55;;;5.10;;
21315;SDS011;10817;55.820;13.030;2023-02-28T02:25:27;6.65;;;4.78;;
21315;SDS011;10817;55.820;13.030;2023-02-28T02:28:01;10.10;;;5.25;;
21315;SDS011;10817;55.820;13.030;2023-02-28T02:30:44;7.53;;;5.25;;
21315;SDS011;10817;55.820;13.030;2023-02-28T02:33:18;8.90;;;5.07;;
21315;SDS011;10817;55.820;13.030;2023-02-28T02:35:53;6.47;;;4.72;;
21315;SDS011;10817;55.820;13.030;2023-02-28T02:38:24;7.95;;;4.85;;
21315;SDS011;10817;55.820;13.030;2023-02-28T02:40:55;6.90;;;4.60;;
21315;SDS011;10817;55.820;13.030;2023-02-28T02:43:25;7.43;;;5.15;;
21315;SDS011;10817;55.820;13.030;2023-02-28T02:45:56;7.97;;;5.40;;
21315;SDS011;10817;55.820;13.030;2023-02-28T02:48:27;9.07;;;5.45;;
21315;SDS011;10817;55.820;13.030;2023-02-28T02:50:58;9.90;;;6.00;;
21315;SDS011;10817;55.820;13.030;2023-02-28T02:53:27;7.63;;;5.30;;
21315;SDS011;10817;55.820;13.030;2023-02-28T02:55:58;11.77;;;5.10;;
21315;SDS011;10817;55.820;13.030;2023-02-28T02:58:29;7.70;;;5.13;;
21315;SDS011;10817;55.820;13.030;2023-02-28T03:00:59;13.52;;;7.53;;
21315;SDS011;10817;55.820;13.030;2023-02-28T03:03:27;9.00;;;5.85;;
21315;SDS011;10817;55.820;13.030;2023-02-28T03:05:55;9.18;;;5.75;;
21315;SDS011;10817;55.820;13.030;2023-02-28T03:08:25;8.75;;;5.35;;
21315;SDS011;10817;55.820;13.030;2023-02-28T03:10:55;8.63;;;5.28;;
21315;SDS011;10817;55.820;13.030;2023-02-28T03:13:34;10.05;;;6.15;;
21315;SDS011;10817;55.820;13.030;2023-02-28T03:16:19;13.38;;;6.35;;
21315;SDS011;10817;55.820;13.030;2023-02-28T03:18:51;7.82;;;5.88;;
21315;SDS011;10817;55.820;13.030;2023-02-28T03:21:22;11.40;;;6.65;;
21315;SDS011;10817;55.820;13.030;2023-02-28T03:23:54;14.43;;;6.32;;
21315;SDS011;10817;55.820;13.030;2023-02-28T03:26:23;9.00;;;6.25;;
21315;SDS011;10817;55.820;13.030;2023-02-28T03:28:53;13.77;;;6.60;;
21315;SDS011;10817;55.820;13.030;2023-02-28T03:31:25;11.77;;;5.88;;
21315;SDS011;10817;55.820;13.030;2023-02-28T03:33:54;7.95;;;5.78;;
21315;SDS011;10817;55.820;13.030;2023-02-28T03:36:23;11.13;;;5.82;;
21315;SDS011;10817;55.820;13.030;2023-02-28T03:38:51;10.18;;;6.00;;
21315;SDS011;10817;55.820;13.030;2023-02-28T03:41:22;11.23;;;6.57;;
21315;SDS011;10817;55.820;13.030;2023-02-28T03:43:51;11.60;;;6.70;;
21315;SDS011;10817;55.820;13.030;2023-02-28T03:46:21;9.68;;;6.00;;
21315;SDS011;10817;55.820;13.030;2023-02-28T03:48:51;11.18;;;6.45;;
21315;SDS011;10817;55.820;13.030;2023-02-28T03:51:20;11.73;;;6.25;;
21315;SDS011;10817;55.820;13.030;2023-02-28T03:53:50;15.00;;;5.70;;
21315;SDS011;10817;55.820;13.030;2023-02-28T03:56:18;10.45;;;5.97;;
21315;SDS011;10817;55.820;13.030;2023-02-28T03:58:49;13.35;;;6.50;;
21315;SDS011;10817;55.820;13.030;2023-02-28T04:01:20;11.45;;;5.95;;
21315;SDS011;10817;55.820;13.030;2023-02-28T04:03:49;24.80;;;7.45;;
21315;SDS011;10817;55.820;13.030;2023-02-28T04:06:16;19.10;;;7.78;;
21315;SDS011;10817;55.820;13.030;2023-02-28T04:08:44;28.77;;;8.07;;
21315;SDS011;10817;55.820;13.030;2023-02-28T04:11:15;48.95;;;9.15;;
21315;SDS011;10817;55.820;13.030;2023-02-28T04:13:43;23.42;;;9.10;;
21315;SDS011;10817;55.820;13.030;2023-02-28T04:16:12;34.50;;;9.13;;
21315;SDS011;10817;55.820;13.030;2023-02-28T04:18:39;24.23;;;9.75;;
21315;SDS011;10817;55.820;13.030;2023-02-28T04:21:08;37.45;;;9.63;;
21315;SDS011;10817;55.820;13.030;2023-02-28T04:23:35;43.15;;;11.07;;
21315;SDS011;10817;55.820;13.030;2023-02-28T04:26:02;35.72;;;11.50;;
21315;SDS011;10817;55.820;13.030;2023-02-28T04:28:30;43.97;;;11.55;;
21315;SDS011;10817;55.820;13.030;2023-02-28T04:30:58;33.58;;;13.00;;
21315;SDS011;10817;55.820;13.030;2023-02-28T04:33:27;57.67;;;13.80;;
21315;SDS011;10817;55.820;13.030;2023-02-28T04:35:58;35.90;;;13.73;;
21315;SDS011;10817;55.820;13.030;2023-02-28T04:38:25;42.90;;;14.00;;
21315;SDS011;10817;55.820;13.030;2023-02-28T04:40:53;37.10;;;14.43;;
21315;SDS011;10817;55.820;13.030;2023-02-28T04:43:20;38.85;;;13.93;;
21315;SDS011;10817;55.820;13.030;2023-02-28T04:45:47;74.95;;;15.48;;
21315;SDS011;10817;55.820;13.030;2023-02-28T04:48:14;31.42;;;14.70;;
21315;SDS011;10817;55.820;13.030;2023-02-28T04:50:42;41.67;;;14.38;;
21315;SDS011;10817;55.820;13.030;2023-02-28T04:53:10;99.88;;;14.07;;
21315;SDS011;10817;55.820;13.030;2023-02-28T04:55:37;54.20;;;13.88;;
21315;SDS011;10817;55.820;13.030;2023-02-28T04:58:05;58.13;;;14.52;;
21315;SDS011;10817;55.820;13.030;2023-02-28T05:00:32;106.20;;;13.63;;
21315;SDS011;10817;55.820;13.030;2023-02-28T05:03:00;90.97;;;13.20;;
21315;SDS011;10817;55.820;13.030;2023-02-28T05:05:27;39.85;;;12.32;;
21315;SDS011;10817;55.820;13.030;2023-02-28T05:07:55;45.50;;;13.20;;
21315;SDS011;10817;55.820;13.030;2023-02-28T05:10:23;26.05;;;13.20;;
21315;SDS011;10817;55.820;13.030;2023-02-28T05:12:50;30.08;;;12.52;;
21315;SDS011;10817;55.820;13.030;2023-02-28T05:15:17;29.45;;;12.55;;
21315;SDS011;10817;55.820;13.030;2023-02-28T05:17:44;45.63;;;13.27;;
21315;SDS011;10817;55.820;13.030;2023-02-28T05:20:12;26.60;;;12.52;;
21315;SDS011;10817;55.820;13.030;2023-02-28T05:22:39;21.73;;;11.00;;
21315;SDS011;10817;55.820;13.030;2023-02-28T05:25:09;30.05;;;10.95;;
21315;SDS011;10817;55.820;13.030;2023-02-28T05:27:37;41.83;;;10.90;;
21315;SDS011;10817;55.820;13.030;2023-02-28T05:30:05;30.55;;;10.38;;
21315;SDS011;10817;55.820;13.030;2023-02-28T05:32:35;36.90;;;11.50;;
21315;SDS011;10817;55.820;13.030;2023-02-28T05:35:02;35.60;;;11.05;;
21315;SDS011;10817;55.820;13.030;2023-02-28T05:37:30;40.80;;;11.07;;
21315;SDS011;10817;55.820;13.030;2023-02-28T05:39:57;63.10;;;12.18;;
21315;SDS011;10817;55.820;13.030;2023-02-28T05:42:26;27.10;;;11.25;;
21315;SDS011;10817;55.820;13.030;2023-02-28T05:44:53;32.38;;;11.55;;
21315;SDS011;10817;55.820;13.030;2023-02-28T05:47:20;26.90;;;11.52;;
21315;SDS011;10817;55.820;13.030;2023-02-28T05:49:53;32.95;;;12.30;;
21315;SDS011;10817;55.820;13.030;2023-02-28T05:52:21;34.00;;;11.95;;
21315;SDS011;10817;55.820;13.030;2023-02-28T05:54:48;35.78;;;11.80;;
21315;SDS011;10817;55.820;13.030;2023-02-28T05:57:16;30.00;;;11.40;;
21315;SDS011;10817;55.820;13.030;2023-02-28T05:59:44;23.80;;;11.13;;
21315;SDS011;10817;55.820;13.030;2023-02-28T06:02:12;43.53;;;11.60;;
21315;SDS011;10817;55.820;13.030;2023-02-28T06:04:39;24.50;;;11.60;;
21315;SDS011;10817;55.820;13.030;2023-02-28T06:07:07;38.85;;;10.65;;
21315;SDS011;10817;55.820;13.030;2023-02-28T06:09:34;29.45;;;10.25;;
21315;SDS011;10817;55.820;13.030;2023-02-28T06:12:02;26.02;;;11.45;;
21315;SDS011;10817;55.820;13.030;2023-02-28T06:14:30;27.33;;;11.20;;
21315;SDS011;10817;55.820;13.030;2023-02-28T06:16:59;35.10;;;11.55;;
21315;SDS011;10817;55.820;13.030;2023-02-28T06:19:26;28.48;;;11.25;;
21315;SDS011;10817;55.820;13.030;2023-02-28T06:21:55;37.70;;;11.68;;
21315;SDS011;10817;55.820;13.030;2023-02-28T06:24:24;28.63;;;11.32;;
21315;SDS011;10817;55.820;13.030;2023-02-28T06:26:53;57.83;;;12.70;;
21315;SDS011;10817;55.820;13.030;2023-02-28T06:29:24;59.95;;;11.80;;
21315;SDS011;10817;55.820;13.030;2023-02-28T06:31:51;42.70;;;12.00;;
21315;SDS011;10817;55.820;13.030;2023-02-28T06:34:19;21.42;;;11.35;;
21315;SDS011;10817;55.820;13.030;2023-02-28T06:36:46;26.30;;;13.68;;
21315;SDS011;10817;55.820;13.030;2023-02-28T06:39:17;37.28;;;13.90;;
21315;SDS011;10817;55.820;13.030;2023-02-28T06:41:44;38.95;;;11.52;;
21315;SDS011;10817;55.820;13.030;2023-02-28T06:44:14;26.50;;;11.90;;
21315;SDS011;10817;55.820;13.030;2023-02-28T06:46:42;32.67;;;12.30;;
21315;SDS011;10817;55.820;13.030;2023-02-28T06:49:10;74.03;;;12.75;;
21315;SDS011;10817;55.820;13.030;2023-02-28T06:51:39;49.50;;;12.27;;
21315;SDS011;10817;55.820;13.030;2023-02-28T06:54:10;21.40;;;12.27;;
21315;SDS011;10817;55.820;13.030;2023-02-28T06:56:38;41.75;;;12.63;;
21315;SDS011;10817;55.820;13.030;2023-02-28T06:59:07;29.77;;;12.27;;
21315;SDS011;10817;55.820;13.030;2023-02-28T07:01:34;94.65;;;12.75;;
21315;SDS011;10817;55.820;13.030;2023-02-28T07:04:02;49.55;;;12.25;;
21315;SDS011;10817;55.820;13.030;2023-02-28T07:06:30;30.88;;;12.73;;
21315;SDS011;10817;55.820;13.030;2023-02-28T07:08:59;76.07;;;13.85;;
21315;SDS011;10817;55.820;13.030;2023-02-28T07:11:27;56.58;;;12.70;;
21315;SDS011;10817;55.820;13.030;2023-02-28T07:13:54;66.85;;;13.07;;
21315;SDS011;10817;55.820;13.030;2023-02-28T07:16:22;32.45;;;11.52;;
21315;SDS011;10817;55.820;13.030;2023-02-28T07:18:51;24.38;;;11.77;;
21315;SDS011;10817;55.820;13.030;2023-02-28T07:21:18;44.20;;;13.00;;
21315;SDS011;10817;55.820;13.030;2023-02-28T07:23:46;28.20;;;12.70;;
21315;SDS011;10817;55.820;13.030;2023-02-28T07:26:15;58.10;;;10.82;;
21315;SDS011;10817;55.820;13.030;2023-02-28T07:28:43;81.10;;;9.93;;
21315;SDS011;10817;55.820;13.030;2023-02-28T07:31:10;80.03;;;9.23;;
21315;SDS011;10817;55.820;13.030;2023-02-28T07:33:39;14.80;;;9.43;;
21315;SDS011;10817;55.820;13.030;2023-02-28T07:36:08;52.83;;;9.85;;
21315;SDS011;10817;55.820;13.030;2023-02-28T07:38:39;28.92;;;8.90;;
21315;SDS011;10817;55.820;13.030;2023-02-28T07:41:06;32.00;;;9.43;;
21315;SDS011;10817;55.820;13.030;2023-02-28T07:43:35;57.72;;;9.52;;
21315;SDS011;10817;55.820;13.030;2023-02-28T07:46:03;48.33;;;9.98;;
21315;SDS011;10817;55.820;13.030;2023-02-28T07:48:30;33.40;;;8.35;;
21315;SDS011;10817;55.820;13.030;2023-02-28T07:50:58;50.03;;;8.00;;
21315;SDS011;10817;55.820;13.030;2023-02-28T07:53:25;44.70;;;7.47;;
21315;SDS011;10817;55.820;13.030;2023-02-28T07:55:54;29.35;;;7.70;;
21315;SDS011;10817;55.820;13.030;2023-02-28T07:58:21;42.08;;;7.75;;
21315;SDS011;10817;55.820;13.030;2023-02-28T08:00:50;16.95;;;7.78;;
21315;SDS011;10817;55.820;13.030;2023-02-28T08:03:18;11.38;;;7.55;;
21315;SDS011;10817;55.820;13.030;2023-02-28T08:05:46;24.13;;;7.40;;
21315;SDS011;10817;55.820;13.030;2023-02-28T08:08:14;23.35;;;7.57;;
21315;SDS011;10817;55.820;13.030;2023-02-28T08:10:41;41.10;;;7.47;;
21315;SDS011;10817;55.820;13.030;2023-02-28T08:13:08;14.98;;;7.50;;
21315;SDS011;10817;55.820;13.030;2023-02-28T08:15:36;18.70;;;6.90;;
21315;SDS011;10817;55.820;13.030;2023-02-28T08:18:04;25.58;;;7.50;;
21315;SDS011;10817;55.820;13.030;2023-02-28T08:20:31;26.23;;;7.30;;
21315;SDS011;10817;55.820;13.030;2023-02-28T08:22:59;67.15;;;9.15;;
21315;SDS011;10817;55.820;13.030;2023-02-28T08:25:26;24.13;;;8.95;;
21315;SDS011;10817;55.820;13.030;2023-02-28T08:27:54;19.30;;;8.85;;
21315;SDS011;10817;55.820;13.030;2023-02-28T08:30:21;59.15;;;11.27;;
21315;SDS011;10817;55.820;13.030;2023-02-28T08:32:48;37.90;;;12.13;;
21315;SDS011;10817;55.820;13.030;2023-02-28T08:35:17;25.70;;;12.00;;
21315;SDS011;10817;55.820;13.030;2023-02-28T08:37:44;45.08;;;11.82;;
21315;SDS011;10817;55.820;13.030;2023-02-28T08:40:14;56.55;;;10.60;;
21315;SDS011;10817;55.820;13.030;2023-02-28T08:42:43;91.32;;;11.82;;
21315;SDS011;10817;55.820;13.030;2023-02-28T08:45:10;71.53;;;10.85;;
21315;SDS011;10817;55.820;13.030;2023-02-28T08:47:38;58.83;;;10.68;;
21315;SDS011;10817;55.820;13.030;2023-02-28T08:50:06;52.10;;;9.18;;
21315;SDS011;10817;55.820;13.030;2023-02-28T08:52:34;48.67;;;8.68;;
21315;SDS011;10817;55.820;13.030;2023-02-28T08:55:03;53.03;;;8.23;;
21315;SDS011;10817;55.820;13.030;2023-02-28T08:57:31;17.40;;;8.20;;
21315;SDS011;10817;55.820;13.030;2023-02-28T08:59:59;23.67;;;7.75;;
21315;SDS011;10817;55.820;13.030;2023-02-28T09:02:29;22.48;;;7.15;;
21315;SDS011;10817;55.820;13.030;2023-02-28T09:04:56;13.20;;;6.60;;
21315;SDS011;10817;55.820;13.030;2023-02-28T09:07:24;15.23;;;6.53;;
21315;SDS011;10817;55.820;13.030;2023-02-28T09:09:52;10.93;;;7.47;;
21315;SDS011;10817;55.820;13.030;2023-02-28T09:12:19;17.30;;;6.50;;
21315;SDS011;10817;55.820;13.030;2023-02-28T09:14:46;14.57;;;7.63;;
21315;SDS011;10817;55.820;13.030;2023-02-28T09:17:14;9.32;;;6.90;;
21315;SDS011;10817;55.820;13.030;2023-02-28T09:19:41;9.90;;;7.10;;
21315;SDS011;10817;55.820;13.030;2023-02-28T09:22:08;9.68;;;7.07;;
21315;SDS011;10817;55.820;13.030;2023-02-28T09:24:36;10.90;;;7.00;;
21315;SDS011;10817;55.820;13.030;2023-02-28T09:27:05;9.52;;;6.70;;
21315;SDS011;10817;55.820;13.030;2023-02-28T09:29:33;10.88;;;6.90;;
21315;SDS011;10817;55.820;13.030;2023-02-28T09:32:00;9.60;;;6.65;;
21315;SDS011;10817;55.820;13.030;2023-02-28T09:34:28;9.52;;;6.95;;
21315;SDS011;10817;55.820;13.030;2023-02-28T09:36:56;13.93;;;7.72;;
21315;SDS011;10817;55.820;13.030;2023-02-28T09:39:23;11.85;;;7.30;;
21315;SDS011;10817;55.820;13.030;2023-02-28T09:41:52;9.15;;;6.85;;
21315;SDS011;10817;55.820;13.030;2023-02-28T09:44:22;10.55;;;7.70;;
21315;SDS011;10817;55.820;13.030;2023-02-28T09:46:54;10.63;;;8.20;;
21315;SDS011;10817;55.820;13.030;2023-02-28T09:49:25;10.68;;;7.75;;
21315;SDS011;10817;55.820;13.030;2023-02-28T09:51:56;10.30;;;7.57;;
21315;SDS011;10817;55.820;13.030;2023-02-28T09:54:28;17.33;;;7.40;;
21315;SDS011;10817;55.820;13.030;2023-02-28T09:56:56;9.73;;;7.32;;
21315;SDS011;10817;55.820;13.030;2023-02-28T09:59:31;8.88;;;7.35;;
21315;SDS011;10817;55.820;13.030;2023-02-28T10:02:04;10.65;;;8.07;;
21315;SDS011;10817;55.820;13.030;2023-02-28T10:04:38;11.65;;;8.32;;
21315;SDS011;10817;55.820;13.030;2023-02-28T10:07:10;9.57;;;7.38;;
21315;SDS011;10817;55.820;13.030;2023-02-28T10:09:42;8.98;;;7.00;;
21315;SDS011;10817;55.820;13.030;2023-02-28T10:12:11;10.63;;;7.10;;
21315;SDS011;10817;55.820;13.030;2023-02-28T10:14:41;9.77;;;7.22;;
21315;SDS011;10817;55.820;13.030;2023-02-28T10:17:12;10.63;;;7.18;;
21315;SDS011;10817;55.820;13.030;2023-02-28T10:19:41;10.77;;;7.22;;
21315;SDS011;10817;55.820;13.030;2023-02-28T10:22:10;8.20;;;6.80;;
21315;SDS011;10817;55.820;13.030;2023-02-28T10:24:39;9.98;;;7.28;;
21315;SDS011;10817;55.820;13.030;2023-02-28T10:27:12;10.50;;;6.88;;
21315;SDS011;10817;55.820;13.030;2023-02-28T10:29:42;9.02;;;6.43;;
21315;SDS011;10817;55.820;13.030;2023-02-28T10:32:10;8.82;;;4.60;;
21315;SDS011;10817;55.820;13.030;2023-02-28T10:34:38;5.68;;;4.22;;
21315;SDS011;10817;55.820;13.030;2023-02-28T10:37:05;7.13;;;3.75;;
21315;SDS011;10817;55.820;13.030;2023-02-28T10:39:33;8.48;;;4.28;;
21315;SDS011;10817;55.820;13.030;2023-02-28T10:42:01;7.10;;;3.97;;
21315;SDS011;10817;55.820;13.030;2023-02-28T10:44:28;7.35;;;3.88;;
21315;SDS011;10817;55.820;13.030;2023-02-28T10:46:57;7.60;;;4.20;;
21315;SDS011;10817;55.820;13.030;2023-02-28T10:49:25;6.88;;;4.15;;
21315;SDS011;10817;55.820;13.030;2023-02-28T10:51:53;4.45;;;3.20;;
21315;SDS011;10817;55.820;13.030;2023-02-28T10:54:22;4.65;;;3.50;;
21315;SDS011;10817;55.820;13.030;2023-02-28T10:57:07;5.75;;;3.10;;
21315;SDS011;10817;55.820;13.030;2023-02-28T10:59:35;6.18;;;3.60;;
21315;SDS011;10817;55.820;13.030;2023-02-28T11:02:08;6.25;;;3.28;;
21315;SDS011;10817;55.820;13.030;2023-02-28T11:04:55;5.03;;;3.13;;
21315;SDS011;10817;55.820;13.030;2023-02-28T11:07:22;4.75;;;3.55;;
21315;SDS011;10817;55.820;13.030;2023-02-28T11:09:50;8.77;;;3.53;;
21315;SDS011;10817;55.820;13.030;2023-02-28T11:12:22;7.88;;;3.83;;
21315;SDS011;10817;55.820;13.030;2023-02-28T11:14:51;5.07;;;3.47;;
21315;SDS011;10817;55.820;13.030;2023-02-28T11:17:21;6.93;;;3.78;;
21315;SDS011;10817;55.820;13.030;2023-02-28T11:19:50;7.05;;;3.30;;
21315;SDS011;10817;55.820;13.030;2023-02-28T11:22:18;4.97;;;3.72;;
21315;SDS011;10817;55.820;13.030;2023-02-28T11:24:47;6.38;;;3.60;;
21315;SDS011;10817;55.820;13.030;2023-02-28T11:27:24;6.15;;;3.92;;
21315;SDS011;10817;55.820;13.030;2023-02-28T11:29:52;6.38;;;3.00;;
21315;SDS011;10817;55.820;13.030;2023-02-28T11:32:20;7.30;;;3.17;;
21315;SDS011;10817;55.820;13.030;2023-02-28T11:34:59;6.05;;;3.28;;
21315;SDS011;10817;55.820;13.030;2023-02-28T11:37:28;9.65;;;3.58;;
21315;SDS011;10817;55.820;13.030;2023-02-28T11:39:55;5.40;;;3.38;;
21315;SDS011;10817;55.820;13.030;2023-02-28T11:42:32;7.43;;;3.95;;
21315;SDS011;10817;55.820;13.030;2023-02-28T11:45:12;4.60;;;3.10;;
21315;SDS011;10817;55.820;13.030;2023-02-28T11:47:47;4.80;;;3.15;;
21315;SDS011;10817;55.820;13.030;2023-02-28T11:50:16;4.40;;;3.15;;
21315;SDS011;10817;55.820;13.030;2023-02-28T11:52:50;6.47;;;3.40;;
21315;SDS011;10817;55.820;13.030;2023-02-28T11:55:19;3.08;;;2.75;;
21315;SDS011;10817;55.820;13.030;2023-02-28T11:57:51;7.15;;;3.58;;
21315;SDS011;10817;55.820;13.030;2023-02-28T12:00:26;4.65;;;3.25;;
21315;SDS011;10817;55.820;13.030;2023-02-28T12:03:02;4.63;;;3.00;;
21315;SDS011;10817;55.820;13.030;2023-02-28T12:05:34;5.90;;;2.95;;
21315;SDS011;10817;55.820;13.030;2023-02-28T12:08:04;4.97;;;3.10;;
21315;SDS011;10817;55.820;13.030;2023-02-28T12:10:34;6.55;;;2.95;;
21315;SDS011;10817;55.820;13.030;2023-02-28T12:13:06;4.50;;;3.30;;
21315;SDS011;10817;55.820;13.030;2023-02-28T12:15:38;4.72;;;3.13;;
21315;SDS011;10817;55.820;13.030;2023-02-28T12:18:12;6.32;;;3.38;;
21315;SDS011;10817;55.820;13.030;2023-02-28T12:20:45;5.57;;;3.00;;
21315;SDS011;10817;55.820;13.030;2023-02-28T12:23:26;5.38;;;3.10;;
21315;SDS011;10817;55.820;13.030;2023-02-28T12:26:02;7.72;;;3.30;;
21315;SDS011;10817;55.820;13.030;2023-02-28T12:28:35;5.85;;;3.28;;
21315;SDS011;10817;55.820;13.030;2023-02-28T12:31:05;5.00;;;3.08;;
21315;SDS011;10817;55.820;13.030;2023-02-28T12:33:39;4.38;;;3.33;;
21315;SDS011;10817;55.820;13.030;2023-02-28T12:36:09;3.15;;;2.60;;
21315;SDS011;10817;55.820;13.030;2023-02-28T12:38:38;3.78;;;2.63;;
21315;SDS011;10817;55.820;13.030;2023-02-28T12:41:09;3.28;;;2.33;;
21315;SDS011;10817;55.820;13.030;2023-02-28T12:43:40;8.93;;;3.53;;
21315;SDS011;10817;55.820;13.030;2023-02-28T12:46:09;6.32;;;3.35;;
21315;SDS011;10817;55.820;13.030;2023-02-28T12:48:40;4.43;;;3.20;;
21315;SDS011;10817;55.820;13.030;2023-02-28T12:51:09;5.72;;;3.40;;
21315;SDS011;10817;55.820;13.030;2023-02-28T12:53:39;6.43;;;3.50;;
21315;SDS011;10817;55.820;13.030;2023-02-28T12:56:13;5.53;;;3.15;;
21315;SDS011;10817;55.820;13.030;2023-02-28T12:58:42;5.00;;;3.33;;
21315;SDS011;10817;55.820;13.030;2023-02-28T13:04:05;3.85;;;3.03;;
21315;SDS011;10817;55.820;13.030;2023-02-28T13:06:41;4.30;;;3.10;;
21315;SDS011;10817;55.820;13.030;2023-02-28T13:09:10;8.30;;;3.75;;
21315;SDS011;10817;55.820;13.030;2023-02-28T13:11:41;7.45;;;3.85;;
21315;SDS011;10817;55.820;13.030;2023-02-28T13:14:20;5.35;;;2.45;;
21315;SDS011;10817;55.820;13.030;2023-02-28T13:16:51;5.38;;;3.00;;
21315;SDS011;10817;55.820;13.030;2023-02-28T13:19:21;4.47;;;3.38;;
21315;SDS011;10817;55.820;13.030;2023-02-28T13:21:49;7.10;;;2.90;;
21315;SDS011;10817;55.820;13.030;2023-02-28T13:24:36;5.72;;;2.90;;
21315;SDS011;10817;55.820;13.030;2023-02-28T13:27:12;7.50;;;3.05;;
21315;SDS011;10817;55.820;13.030;2023-02-28T13:29:49;5.93;;;3.15;;
21315;SDS011;10817;55.820;13.030;2023-02-28T13:32:28;7.45;;;3.25;;
21315;SDS011;10817;55.820;13.030;2023-02-28T13:38:12;6.15;;;3.60;;
21315;SDS011;10817;55.820;13.030;2023-02-28T13:40:40;5.15;;;3.25;;
21315;SDS011;10817;55.820;13.030;2023-02-28T13:43:08;6.35;;;3.95;;
21315;SDS011;10817;55.820;13.030;2023-02-28T13:45:35;4.88;;;2.72;;
21315;SDS011;10817;55.820;13.030;2023-02-28T13:48:05;5.25;;;3.45;;
21315;SDS011;10817;55.820;13.030;2023-02-28T13:50:43;5.45;;;3.40;;
21315;SDS011;10817;55.820;13.030;2023-02-28T13:53:26;5.53;;;2.50;;
21315;SDS011;10817;55.820;13.030;2023-02-28T13:55:57;6.45;;;3.05;;
21315;SDS011;10817;55.820;13.030;2023-02-28T13:58:37;7.30;;;2.67;;
21315;SDS011;10817;55.820;13.030;2023-02-28T14:01:14;3.47;;;2.33;;
21315;SDS011;10817;55.820;13.030;2023-02-28T14:03:51;4.40;;;2.63;;
21315;SDS011;10817;55.820;13.030;2023-02-28T14:06:22;3.45;;;2.30;;
21315;SDS011;10817;55.820;13.030;2023-02-28T14:08:54;3.90;;;2.50;;
21315;SDS011;10817;55.820;13.030;2023-02-28T14:11:27;6.70;;;2.80;;
21315;SDS011;10817;55.820;13.030;2023-02-28T14:13:54;5.43;;;2.90;;
21315;SDS011;10817;55.820;13.030;2023-02-28T14:16:23;4.63;;;2.60;;
21315;SDS011;10817;55.820;13.030;2023-02-28T14:18:54;7.57;;;2.80;;
21315;SDS011;10817;55.820;13.030;2023-02-28T14:21:24;6.53;;;2.38;;
21315;SDS011;10817;55.820;13.030;2023-02-28T14:24:07;4.97;;;2.83;;
21315;SDS011;10817;55.820;13.030;2023-02-28T14:26:47;3.85;;;2.72;;
21315;SDS011;10817;55.820;13.030;2023-02-28T14:29:30;6.03;;;3.00;;
21315;SDS011;10817;55.820;13.030;2023-02-28T14:32:02;4.97;;;2.90;;
21315;SDS011;10817;55.820;13.030;2023-02-28T14:34:36;4.78;;;2.67;;
21315;SDS011;10817;55.820;13.030;2023-02-28T14:37:04;5.10;;;2.53;;
21315;SDS011;10817;55.820;13.030;2023-02-28T14:39:34;4.55;;;2.80;;
21315;SDS011;10817;55.820;13.030;2023-02-28T14:42:02;3.35;;;2.35;;
21315;SDS011;10817;55.820;13.030;2023-02-28T14:44:30;4.43;;;2.70;;
21315;SDS011;10817;55.820;13.030;2023-02-28T14:46:57;6.47;;;2.95;;
21315;SDS011;10817;55.820;13.030;2023-02-28T14:49:29;5.93;;;2.65;;